| time (UTC) | temp C | wind direction | speed KPH | gust KPH | rain 1hr cm | rain 24hr cm | rain mn cm | humidity % | barometer mb |
| 20260906184514 | 30 | 245 | 1.6 | 9.7 | 0.00 | 0.00 | 0.00 | 55 | 1015.0 |
| 20260906183024 | 30 | 320 | 1.6 | 14.5 | 0.00 | 0.00 | 0.00 | 53 | 1014.8 |
| 20260906181504 | 33 | 279 | 3.2 | 9.7 | 0.00 | 0.00 | 0.00 | 42 | 1014.6 |
| 20260906180005 | 33 | 309 | 3.2 | 4.8 | 0.00 | 0.00 | 0.00 | 44 | 1014.5 |
| 20260906174513 | 34 | 53 | 0.0 | 4.8 | 0.00 | 0.00 | 0.00 | 44 | 1014.6 |
| 20260906173016 | 36 | 46 | 3.2 | 11.3 | 0.00 | 0.00 | 0.00 | 38 | 1014.9 |
| 20260906171523 | 36 | 38 | 3.2 | 16.1 | 0.00 | 0.00 | 0.00 | 37 | 1015.2 |
| 20260906170005 | 35 | 96 | 6.4 | 9.7 | 0.00 | 0.00 | 0.00 | 38 | 1015.6 |
| 20260906164507 | 34 | 54 | 6.4 | 8.0 | 0.00 | 0.00 | 0.00 | 42 | 1015.8 |
| 20260906163012 | 34 | 296 | 0.0 | 1.6 | 0.00 | 0.00 | 0.00 | 45 | 1015.9 |
| 20260906161517 | 34 | 77 | 1.6 | 9.7 | 0.00 | 0.00 | 0.00 | 42 | 1015.9 |
| 20260906160024 | 33 | 70 | 4.8 | 9.7 | 0.00 | 0.00 | 0.00 | 44 | 1015.9 |
| 20260906154506 | 32 | 59 | 0.0 | 3.2 | 0.00 | 0.00 | 0.00 | 53 | 1015.8 |
| 20260906153015 | 30 | 58 | 0.0 | 1.6 | 0.00 | 0.00 | 0.00 | 62 | 1015.8 |
| 20260906151514 | 28 | 59 | 1.6 | 3.2 | 0.00 | 0.00 | 0.00 | 67 | 1015.8 |
| 20260906150018 | 27 | 58 | 1.6 | 1.6 | 0.00 | 0.00 | 0.00 | 76 | 1015.9 |
| 20260906144525 | 25 | 58 | 0.0 | 1.6 | 0.00 | 0.00 | 0.00 | 80 | 1015.8 |
| 20260906143008 | 25 | 58 | 1.6 | 1.6 | 0.00 | 0.00 | 0.00 | 82 | 1016.0 |
| 20260906141512 | 24 | 68 | 0.0 | 1.6 | 0.00 | 0.00 | 0.00 | 83 | 1016.1 |
| 20260906140015 | 23 | 67 | 0.0 | 1.6 | 0.00 | 0.00 | 0.00 | 87 | 1016.0 |
| 20260906134523 | 21 | 68 | 0.0 | 0.0 | 0.00 | 0.00 | 0.00 | 90 | 1016.0 |
| 20260906133026 | 21 | 68 | 0.0 | 0.0 | 0.00 | 0.00 | 0.00 | 91 | 1016.0 |
| 20260906131515 | 20 | 67 | 0.0 | 0.0 | 0.00 | 0.00 | 0.00 | 91 | 1016.0 |
| 20260906130010 | 20 | 68 | 0.0 | 0.0 | 0.00 | 0.00 | 0.00 | 92 | 1015.9 |
| 20260906124516 | 20 | 67 | 0.0 | 0.0 | 0.00 | 0.00 | 0.00 | 92 | 1015.9 |
| 20260906123023 | 20 | 67 | 0.0 | 0.0 | 0.00 | 0.00 | 0.00 | 93 | 1015.8 |
| 20260906121528 | 20 | 67 | 0.0 | 1.6 | 0.00 | 0.00 | 0.00 | 92 | 1015.7 |
| 20260906120008 | 20 | 68 | 0.0 | 1.6 | 0.00 | 0.00 | 0.00 | 93 | 1015.7 |
| 20260906114512 | 20 | 68 | 0.0 | 1.6 | 0.00 | 0.00 | 0.00 | 92 | 1015.6 |
| 20260906113016 | 20 | 67 | 0.0 | 1.6 | 0.00 | 0.00 | 0.00 | 92 | 1015.5 |
| 20260906111525 | 20 | 68 | 0.0 | 0.0 | 0.00 | 0.00 | 0.00 | 92 | 1015.2 |
| 20260906110030 | 20 | 67 | 0.0 | 0.0 | 0.00 | 0.00 | 0.00 | 92 | 1015.1 |
| 20260906104510 | 20 | 68 | 0.0 | 1.6 | 0.00 | 0.00 | 0.00 | 91 | 1015.1 |
| 20260906103016 | 20 | 68 | 0.0 | 1.6 | 0.00 | 0.00 | 0.00 | 91 | 1015.1 |
| 20260906101523 | 20 | 68 | 0.0 | 1.6 | 0.00 | 0.00 | 0.00 | 91 | 1015.1 |
| 20260906100028 | 20 | 68 | 0.0 | 1.6 | 0.00 | 0.00 | 0.00 | 91 | 1015.0 |
| 20260906094531 | 20 | 68 | 0.0 | 1.6 | 0.00 | 0.00 | 0.00 | 91 | 1015.1 |
| 20260906093020 | 20 | 67 | 0.0 | 1.6 | 0.00 | 0.00 | 0.00 | 91 | 1015.0 |
| 20260906091518 | 20 | 68 | 0.0 | 0.0 | 0.00 | 0.00 | 0.00 | 91 | 1014.9 |
| 20260906090025 | 20 | 68 | 0.0 | 3.2 | 0.00 | 0.00 | 0.00 | 90 | 1014.6 |
| 20260906084529 | 20 | 49 | 0.0 | 1.6 | 0.00 | 0.00 | 0.00 | 91 | 1014.7 |
| 20260906083032 | 20 | 49 | 0.0 | 1.6 | 0.00 | 0.00 | 0.00 | 91 | 1014.5 |
| 20260906081520 | 20 | 49 | 0.0 | 1.6 | 0.00 | 0.00 | 0.00 | 91 | 1014.4 |
| 20260906080018 | 20 | 49 | 0.0 | 1.6 | 0.00 | 0.00 | 0.00 | 90 | 1014.4 |
| 20260906074528 | 20 | 49 | 0.0 | 1.6 | 0.00 | 0.00 | 0.00 | 91 | 1014.5 |
| 20260906073030 | 20 | 49 | 0.0 | 1.6 | 0.00 | 0.00 | 0.00 | 91 | 1014.5 |
| 20260906071532 | 21 | 49 | 0.0 | 0.0 | 0.00 | 0.00 | 0.00 | 90 | 1014.6 |
| 20260906070014 | 21 | 49 | 0.0 | 0.0 | 0.00 | 0.00 | 0.00 | 90 | 1014.6 |
| 20260906064531 | 21 | 49 | 0.0 | 0.0 | 0.00 | 0.00 | 0.00 | 89 | 1014.6 |
| 20260906063027 | 21 | 49 | 0.0 | 1.6 | 0.00 | 0.00 | 0.00 | 89 | 1014.7 |
| 20260906061536 | 21 | 49 | 0.0 | 0.0 | 0.00 | 0.00 | 0.00 | 89 | 1014.9 |
| 20260906060037 | 21 | 49 | 0.0 | 0.0 | 0.00 | 0.00 | 0.00 | 88 | 1014.8 |
| 20260906054518 | 21 | 49 | 0.0 | 1.6 | 0.00 | 0.00 | 0.00 | 88 | 1014.6 |
| 20260906053026 | 21 | 49 | 0.0 | 0.0 | 0.00 | 0.00 | 0.00 | 88 | 1014.6 |
| 20260906051529 | 21 | 49 | 0.0 | 0.0 | 0.00 | 0.00 | 0.00 | 87 | 1014.5 |
| 20260906050035 | 22 | 49 | 0.0 | 1.6 | 0.00 | 0.00 | 0.00 | 86 | 1014.5 |
| 20260906044535 | 22 | 49 | 0.0 | 1.6 | 0.00 | 0.00 | 0.00 | 86 | 1014.5 |
| 20260906043019 | 22 | 49 | 0.0 | 1.6 | 0.00 | 0.00 | 0.00 | 85 | 1014.5 |
| 20260906041535 | 22 | 49 | 0.0 | 3.2 | 0.00 | 0.00 | 0.00 | 85 | 1014.5 |
| 20260906040033 | 22 | 34 | 0.0 | 1.6 | 0.00 | 0.00 | 0.00 | 85 | 1014.5 |
| 20260906034536 | 22 | 58 | 0.0 | 1.6 | 0.00 | 0.00 | 0.00 | 85 | 1014.4 |
| 20260906033018 | 22 | 59 | 0.0 | 1.6 | 0.00 | 0.00 | 0.00 | 85 | 1014.4 |
| 20260906031532 | 23 | 59 | 0.0 | 0.0 | 0.00 | 0.00 | 0.00 | 84 | 1014.4 |
| 20260906030029 | 23 | 59 | 0.0 | 1.6 | 0.00 | 0.00 | 0.00 | 84 | 1014.4 |
| 20260906024531 | 23 | 59 | 0.0 | 1.6 | 0.00 | 0.00 | 0.00 | 82 | 1014.1 |
| 20260906023037 | 23 | 59 | 0.0 | 1.6 | 0.00 | 0.00 | 0.00 | 81 | 1014.0 |
| 20260906021518 | 24 | 59 | 0.0 | 1.6 | 0.00 | 0.00 | 0.00 | 81 | 1013.8 |
| 20260906020027 | 24 | 59 | 0.0 | 1.6 | 0.00 | 0.00 | 0.00 | 79 | 1013.6 |
| 20260906014533 | 25 | 58 | 0.0 | 3.2 | 0.00 | 0.00 | 0.00 | 79 | 1013.3 |
| 20260906013031 | 25 | 68 | 0.0 | 1.6 | 0.00 | 0.00 | 0.00 | 79 | 1013.1 |
| 20260906011535 | 25 | 75 | 0.0 | 1.6 | 0.00 | 0.00 | 0.00 | 77 | 1012.8 |
| 20260906010023 | 26 | 75 | 0.0 | 1.6 | 0.00 | 0.00 | 0.00 | 75 | 1012.5 |
| 20260906004528 | 26 | 75 | 0.0 | 1.6 | 0.00 | 0.00 | 0.00 | 74 | 1012.6 |
| 20260906003030 | 27 | 75 | 0.0 | 1.6 | 0.00 | 0.00 | 0.00 | 72 | 1012.6 |
| 20260906001533 | 27 | 76 | 1.6 | 3.2 | 0.00 | 0.00 | 0.00 | 72 | 1012.5 |
| 20260906000034 | 28 | 72 | 1.6 | 3.2 | 0.00 | 0.00 | 0.00 | 70 | 1012.6 |
| 20260905234522 | 28 | 74 | 1.6 | 1.6 | 0.00 | 0.00 | 0.00 | 69 | 1012.6 |
| 20260905233004 | 30 | 75 | 1.6 | 3.2 | 0.00 | 0.00 | 0.00 | 65 | 1012.5 |
| 20260905231508 | 30 | 76 | 1.6 | 3.2 | 0.00 | 0.00 | 0.00 | 62 | 1012.5 |
| 20260905230011 | 31 | 77 | 1.6 | 3.2 | 0.00 | 0.00 | 0.00 | 62 | 1012.4 |
| 20260905224521 | 31 | 28 | 1.6 | 1.6 | 0.00 | 0.00 | 0.00 | 58 | 1012.3 |
| 20260905223025 | 31 | 23 | 1.6 | 4.8 | 0.00 | 0.00 | 0.00 | 65 | 1012.4 |
| 20260905221509 | 31 | 45 | 3.2 | 6.4 | 0.00 | 0.00 | 0.00 | 61 | 1012.5 |
| 20260905220009 | 31 | 46 | 8.0 | 12.9 | 0.00 | 0.00 | 0.00 | 57 | 1012.5 |
| 20260905214514 | 32 | 57 | 8.0 | 19.3 | 0.00 | 0.00 | 0.00 | 52 | 1012.8 |
| 20260905213031 | 37 | 19 | 11.3 | 20.9 | 0.00 | 0.00 | 0.00 | 36 | 1012.8 |
| 20260905211533 | 37 | 147 | 1.6 | 8.0 | 0.00 | 0.00 | 0.00 | 32 | 1012.8 |
| 20260905210008 | 37 | 343 | 0.0 | 8.0 | 0.00 | 0.00 | 0.00 | 33 | 1013.1 |
| 20260905204533 | 36 | 168 | 1.6 | 8.0 | 0.00 | 0.00 | 0.00 | 35 | 1013.5 |
| 20260905203016 | 35 | 26 | 0.0 | 3.2 | 0.00 | 0.00 | 0.00 | 40 | 1013.8 |
| 20260905201527 | 35 | 33 | 1.6 | 3.2 | 0.00 | 0.00 | 0.00 | 40 | 1014.0 |
| 20260905200028 | 36 | 347 | 3.2 | 6.4 | 0.00 | 0.00 | 0.00 | 36 | 1014.0 |
| 20260905194530 | 36 | 41 | 3.2 | 12.9 | 0.00 | 0.00 | 0.00 | 35 | 1014.2 |
| 20260905193035 | 36 | 146 | 0.0 | 8.0 | 0.00 | 0.00 | 0.00 | 36 | 1014.3 |
| 20260905191518 | 36 | 62 | 4.8 | 11.3 | 0.00 | 0.00 | 0.00 | 36 | 1014.6 |
| 20260905190025 | 35 | 120 | 0.0 | 4.8 | 0.00 | 0.00 | 0.00 | 39 | 1014.9 |